sensor_id;sensor_type;location;lat;lon;timestamp;temperature;humidity
64499;SHT31;51087;55.718;21.122;2022-09-09T00:02:27;9.44;75.30
64499;SHT31;51087;55.718;21.122;2022-09-09T00:05:00;9.45;75.36
64499;SHT31;51087;55.718;21.122;2022-09-09T00:07:49;9.41;75.49
64499;SHT31;51087;55.718;21.122;2022-09-09T00:10:39;9.42;75.56
64499;SHT31;51087;55.718;21.122;2022-09-09T00:13:30;9.39;75.27
64499;SHT31;51087;55.718;21.122;2022-09-09T00:16:01;9.37;75.41
64499;SHT31;51087;55.718;21.122;2022-09-09T00:18:33;9.35;75.57
64499;SHT31;51087;55.718;21.122;2022-09-09T00:21:13;9.39;75.17
64499;SHT31;51087;55.718;21.122;2022-09-09T00:23:51;9.37;75.38
64499;SHT31;51087;55.718;21.122;2022-09-09T00:29:05;9.35;75.29
64499;SHT31;51087;55.718;21.122;2022-09-09T00:31:35;9.37;75.46
64499;SHT31;51087;55.718;21.122;2022-09-09T00:34:13;9.34;75.43
64499;SHT31;51087;55.718;21.122;2022-09-09T00:36:40;9.31;75.58
64499;SHT31;51087;55.718;21.122;2022-09-09T00:39:13;9.27;75.48
64499;SHT31;51087;55.718;21.122;2022-09-09T00:44:39;9.27;75.83
64499;SHT31;51087;55.718;21.122;2022-09-09T00:57:32;9.14;76.01
64499;SHT31;51087;55.718;21.122;2022-09-09T01:00:17;9.11;76.30
64499;SHT31;51087;55.718;21.122;2022-09-09T01:03:05;9.11;76.10
64499;SHT31;51087;55.718;21.122;2022-09-09T01:08:35;9.06;76.42
64499;SHT31;51087;55.718;21.122;2022-09-09T01:11:04;9.09;76.31
64499;SHT31;51087;55.718;21.122;2022-09-09T01:13:32;9.01;76.66
64499;SHT31;51087;55.718;21.122;2022-09-09T01:16:00;9.00;76.55
64499;SHT31;51087;55.718;21.122;2022-09-09T01:18:39;9.01;76.45
64499;SHT31;51087;55.718;21.122;2022-09-09T01:26:39;8.97;76.87
64499;SHT31;51087;55.718;21.122;2022-09-09T01:29:08;8.94;76.87
64499;SHT31;51087;55.718;21.122;2022-09-09T01:31:52;8.89;76.98
64499;SHT31;51087;55.718;21.122;2022-09-09T01:34:18;8.89;77.11
64499;SHT31;51087;55.718;21.122;2022-09-09T01:36:49;8.87;77.10
64499;SHT31;51087;55.718;21.122;2022-09-09T01:39:17;8.86;77.17
64499;SHT31;51087;55.718;21.122;2022-09-09T01:41:43;8.89;77.09
64499;SHT31;51087;55.718;21.122;2022-09-09T01:44:09;8.86;77.20
64499;SHT31;51087;55.718;21.122;2022-09-09T01:46:35;8.83;77.31
64499;SHT31;51087;55.718;21.122;2022-09-09T01:49:02;8.79;77.44
64499;SHT31;51087;55.718;21.122;2022-09-09T01:51:29;8.79;77.38
64499;SHT31;51087;55.718;21.122;2022-09-09T01:53:55;8.80;77.50
64499;SHT31;51087;55.718;21.122;2022-09-09T02:02:11;8.77;77.62
64499;SHT31;51087;55.718;21.122;2022-09-09T02:04:50;8.83;77.47
64499;SHT31;51087;55.718;21.122;2022-09-09T02:10:28;8.79;77.61
64499;SHT31;51087;55.718;21.122;2022-09-09T02:13:11;8.82;77.49
64499;SHT31;51087;55.718;21.122;2022-09-09T02:15:52;8.79;77.74
64499;SHT31;51087;55.718;21.122;2022-09-09T02:21:13;8.76;77.86
64499;SHT31;51087;55.718;21.122;2022-09-09T02:23:41;8.79;77.65
64499;SHT31;51087;55.718;21.122;2022-09-09T02:26:09;8.73;77.88
64499;SHT31;51087;55.718;21.122;2022-09-09T02:28:36;8.71;78.07
64499;SHT31;51087;55.718;21.122;2022-09-09T02:31:04;8.72;78.17
64499;SHT31;51087;55.718;21.122;2022-09-09T02:33:35;8.68;78.25
64499;SHT31;51087;55.718;21.122;2022-09-09T02:36:03;8.69;78.19
64499;SHT31;51087;55.718;21.122;2022-09-09T02:38:35;8.63;78.31
64499;SHT31;51087;55.718;21.122;2022-09-09T02:41:03;8.66;78.42
64499;SHT31;51087;55.718;21.122;2022-09-09T02:43:33;8.63;78.24
64499;SHT31;51087;55.718;21.122;2022-09-09T02:51:38;8.53;78.79
64499;SHT31;51087;55.718;21.122;2022-09-09T02:56:53;8.51;78.74
64499;SHT31;51087;55.718;21.122;2022-09-09T02:59:22;8.51;78.88
64499;SHT31;51087;55.718;21.122;2022-09-09T03:01:55;8.49;78.84
64499;SHT31;51087;55.718;21.122;2022-09-09T03:04:20;8.46;78.88
64499;SHT31;51087;55.718;21.122;2022-09-09T03:06:46;8.44;79.06
64499;SHT31;51087;55.718;21.122;2022-09-09T03:09:11;8.44;78.99
64499;SHT31;51087;55.718;21.122;2022-09-09T03:11:37;8.44;79.14
64499;SHT31;51087;55.718;21.122;2022-09-09T03:14:03;8.38;79.17
64499;SHT31;51087;55.718;21.122;2022-09-09T03:16:29;8.37;79.38
64499;SHT31;51087;55.718;21.122;2022-09-09T03:18:55;8.33;79.37
64499;SHT31;51087;55.718;21.122;2022-09-09T03:21:20;8.40;79.08
64499;SHT31;51087;55.718;21.122;2022-09-09T03:23:46;8.34;79.37
64499;SHT31;51087;55.718;21.122;2022-09-09T03:26:12;8.34;79.52
64499;SHT31;51087;55.718;21.122;2022-09-09T03:28:42;8.25;79.57
64499;SHT31;51087;55.718;21.122;2022-09-09T03:31:08;8.27;79.82
64499;SHT31;51087;55.718;21.122;2022-09-09T03:33:36;8.24;79.77
64499;SHT31;51087;55.718;21.122;2022-09-09T03:36:02;8.25;79.63
64499;SHT31;51087;55.718;21.122;2022-09-09T03:38:28;8.31;79.71
64499;SHT31;51087;55.718;21.122;2022-09-09T03:40:55;8.30;79.76
64499;SHT31;51087;55.718;21.122;2022-09-09T03:43:23;8.31;79.75
64499;SHT31;51087;55.718;21.122;2022-09-09T03:45:49;8.33;79.57
64499;SHT31;51087;55.718;21.122;2022-09-09T03:48:16;8.27;79.66
64499;SHT31;51087;55.718;21.122;2022-09-09T03:50:46;8.34;79.59
64499;SHT31;51087;55.718;21.122;2022-09-09T03:53:12;8.31;79.71
64499;SHT31;51087;55.718;21.122;2022-09-09T03:55:37;8.31;79.73
64499;SHT31;51087;55.718;21.122;2022-09-09T03:58:03;8.34;79.72
64499;SHT31;51087;55.718;21.122;2022-09-09T04:00:28;8.31;79.81
64499;SHT31;51087;55.718;21.122;2022-09-09T04:02:55;8.30;79.85
64499;SHT31;51087;55.718;21.122;2022-09-09T04:05:22;8.27;79.74
64499;SHT31;51087;55.718;21.122;2022-09-09T04:07:47;8.31;79.71
64499;SHT31;51087;55.718;21.122;2022-09-09T04:10:13;8.27;79.79
64499;SHT31;51087;55.718;21.122;2022-09-09T04:12:38;8.28;79.96
64499;SHT31;51087;55.718;21.122;2022-09-09T04:15:04;8.30;79.75
64499;SHT31;51087;55.718;21.122;2022-09-09T04:17:32;8.33;79.80
64499;SHT31;51087;55.718;21.122;2022-09-09T04:20:01;8.38;79.25
64499;SHT31;51087;55.718;21.122;2022-09-09T04:22:26;8.40;79.39
64499;SHT31;51087;55.718;21.122;2022-09-09T04:24:52;8.45;79.28
64499;SHT31;51087;55.718;21.122;2022-09-09T04:27:17;8.53;78.88
64499;SHT31;51087;55.718;21.122;2022-09-09T04:29:42;8.58;78.66
64499;SHT31;51087;55.718;21.122;2022-09-09T04:32:08;8.61;78.58
64499;SHT31;51087;55.718;21.122;2022-09-09T04:34:33;8.69;78.46
64499;SHT31;51087;55.718;21.122;2022-09-09T04:36:59;8.77;78.15
64499;SHT31;51087;55.718;21.122;2022-09-09T04:39:25;8.77;78.19
64499;SHT31;51087;55.718;21.122;2022-09-09T04:41:51;8.80;77.84
64499;SHT31;51087;55.718;21.122;2022-09-09T04:44:16;8.90;77.55
64499;SHT31;51087;55.718;21.122;2022-09-09T04:46:42;8.96;77.18
64499;SHT31;51087;55.718;21.122;2022-09-09T04:49:08;9.00;77.11
64499;SHT31;51087;55.718;21.122;2022-09-09T04:51:33;9.07;76.96
64499;SHT31;51087;55.718;21.122;2022-09-09T04:53:59;9.11;76.89
64499;SHT31;51087;55.718;21.122;2022-09-09T04:56:24;9.18;76.45
64499;SHT31;51087;55.718;21.122;2022-09-09T04:58:52;9.27;76.20
64499;SHT31;51087;55.718;21.122;2022-09-09T05:01:19;9.34;76.04
64499;SHT31;51087;55.718;21.122;2022-09-09T05:03:47;9.42;75.45
64499;SHT31;51087;55.718;21.122;2022-09-09T05:06:20;9.49;75.16
64499;SHT31;51087;55.718;21.122;2022-09-09T05:08:46;9.56;75.03
64499;SHT31;51087;55.718;21.122;2022-09-09T05:11:17;9.62;75.05
64499;SHT31;51087;55.718;21.122;2022-09-09T05:13:43;9.68;74.77
64499;SHT31;51087;55.718;21.122;2022-09-09T05:16:09;9.72;74.41
64499;SHT31;51087;55.718;21.122;2022-09-09T05:18:40;9.79;74.31
64499;SHT31;51087;55.718;21.122;2022-09-09T05:21:06;9.85;73.73
64499;SHT31;51087;55.718;21.122;2022-09-09T05:23:33;9.94;73.46
64499;SHT31;51087;55.718;21.122;2022-09-09T05:25:59;10.02;73.40
64499;SHT31;51087;55.718;21.122;2022-09-09T05:28:25;10.13;73.22
64499;SHT31;51087;55.718;21.122;2022-09-09T05:31:04;10.17;72.82
64499;SHT31;51087;55.718;21.122;2022-09-09T05:33:31;10.30;72.47
64499;SHT31;51087;55.718;21.122;2022-09-09T05:35:58;10.38;72.00
64499;SHT31;51087;55.718;21.122;2022-09-09T05:38:24;10.44;71.85
64499;SHT31;51087;55.718;21.122;2022-09-09T05:40:51;10.49;71.77
64499;SHT31;51087;55.718;21.122;2022-09-09T05:43:17;10.51;71.51
64499;SHT31;51087;55.718;21.122;2022-09-09T05:45:43;10.59;71.19
64499;SHT31;51087;55.718;21.122;2022-09-09T05:48:08;10.65;70.93
64499;SHT31;51087;55.718;21.122;2022-09-09T05:50:34;10.69;71.18
64499;SHT31;51087;55.718;21.122;2022-09-09T05:52:59;10.76;70.85
64499;SHT31;51087;55.718;21.122;2022-09-09T05:55:25;10.83;70.52
64499;SHT31;51087;55.718;21.122;2022-09-09T05:57:50;10.91;70.34
64499;SHT31;51087;55.718;21.122;2022-09-09T06:00:17;10.97;69.90
64499;SHT31;51087;55.718;21.122;2022-09-09T06:02:43;11.09;69.82
64499;SHT31;51087;55.718;21.122;2022-09-09T06:05:09;11.12;69.46
64499;SHT31;51087;55.718;21.122;2022-09-09T06:07:35;11.17;69.32
64499;SHT31;51087;55.718;21.122;2022-09-09T06:10:03;11.22;69.24
64499;SHT31;51087;55.718;21.122;2022-09-09T06:12:28;11.30;69.09
64499;SHT31;51087;55.718;21.122;2022-09-09T06:14:59;11.37;68.59
64499;SHT31;51087;55.718;21.122;2022-09-09T06:17:25;11.45;68.63
64499;SHT31;51087;55.718;21.122;2022-09-09T06:19:50;11.52;68.39
64499;SHT31;51087;55.718;21.122;2022-09-09T06:22:17;11.62;68.36
64499;SHT31;51087;55.718;21.122;2022-09-09T06:24:42;11.77;67.67
64499;SHT31;51087;55.718;21.122;2022-09-09T06:27:08;11.83;67.08
64499;SHT31;51087;55.718;21.122;2022-09-09T06:29:33;11.92;66.52
64499;SHT31;51087;55.718;21.122;2022-09-09T06:31:58;11.98;66.50
64499;SHT31;51087;55.718;21.122;2022-09-09T06:34:24;12.12;66.69
64499;SHT31;51087;55.718;21.122;2022-09-09T06:36:49;12.23;66.21
64499;SHT31;51087;55.718;21.122;2022-09-09T06:39:16;12.26;65.95
64499;SHT31;51087;55.718;21.122;2022-09-09T06:41:42;12.29;65.86
64499;SHT31;51087;55.718;21.122;2022-09-09T06:44:07;12.30;65.68
64499;SHT31;51087;55.718;21.122;2022-09-09T06:46:33;12.38;65.68
64499;SHT31;51087;55.718;21.122;2022-09-09T06:49:01;12.47;65.26
64499;SHT31;51087;55.718;21.122;2022-09-09T06:51:33;12.55;65.26
64499;SHT31;51087;55.718;21.122;2022-09-09T06:54:00;12.61;65.15
64499;SHT31;51087;55.718;21.122;2022-09-09T06:56:29;12.69;64.61
64499;SHT31;51087;55.718;21.122;2022-09-09T06:58:57;12.78;64.49
64499;SHT31;51087;55.718;21.122;2022-09-09T07:01:37;12.89;64.30
64499;SHT31;51087;55.718;21.122;2022-09-09T07:04:03;13.05;63.83
64499;SHT31;51087;55.718;21.122;2022-09-09T07:06:34;13.20;63.21
64499;SHT31;51087;55.718;21.122;2022-09-09T07:09:03;13.29;62.74
64499;SHT31;51087;55.718;21.122;2022-09-09T07:11:31;13.33;62.74
64499;SHT31;51087;55.718;21.122;2022-09-09T07:13:58;13.42;62.26
64499;SHT31;51087;55.718;21.122;2022-09-09T07:16:24;13.47;62.19
64499;SHT31;51087;55.718;21.122;2022-09-09T07:18:51;13.61;61.94
64499;SHT31;51087;55.718;21.122;2022-09-09T07:21:18;13.71;61.76
64499;SHT31;51087;55.718;21.122;2022-09-09T07:23:44;13.74;61.16
64499;SHT31;51087;55.718;21.122;2022-09-09T07:26:10;13.77;61.00
64499;SHT31;51087;55.718;21.122;2022-09-09T07:28:37;13.94;61.16
64499;SHT31;51087;55.718;21.122;2022-09-09T07:31:04;13.95;60.89
64499;SHT31;51087;55.718;21.122;2022-09-09T07:33:31;14.08;60.77
64499;SHT31;51087;55.718;21.122;2022-09-09T07:36:25;14.15;60.41
64499;SHT31;51087;55.718;21.122;2022-09-09T07:38:54;14.28;60.07
64499;SHT31;51087;55.718;21.122;2022-09-09T07:41:28;14.36;59.86
64499;SHT31;51087;55.718;21.122;2022-09-09T07:43:55;14.36;59.36
64499;SHT31;51087;55.718;21.122;2022-09-09T07:46:23;14.28;59.37
64499;SHT31;51087;55.718;21.122;2022-09-09T07:48:52;14.37;59.33
64499;SHT31;51087;55.718;21.122;2022-09-09T07:51:21;14.49;59.00
64499;SHT31;51087;55.718;21.122;2022-09-09T07:53:48;14.63;58.51
64499;SHT31;51087;55.718;21.122;2022-09-09T07:56:16;14.74;58.24
64499;SHT31;51087;55.718;21.122;2022-09-09T07:58:48;14.78;57.50
64499;SHT31;51087;55.718;21.122;2022-09-09T08:01:16;14.85;57.48
64499;SHT31;51087;55.718;21.122;2022-09-09T08:03:43;14.92;57.47
64499;SHT31;51087;55.718;21.122;2022-09-09T08:06:10;14.87;57.53
64499;SHT31;51087;55.718;21.122;2022-09-09T08:08:36;15.04;58.14
64499;SHT31;51087;55.718;21.122;2022-09-09T08:11:15;15.21;57.10
64499;SHT31;51087;55.718;21.122;2022-09-09T08:13:42;15.14;56.74
64499;SHT31;51087;55.718;21.122;2022-09-09T08:16:15;15.15;56.86
64499;SHT31;51087;55.718;21.122;2022-09-09T08:18:41;15.14;57.09
64499;SHT31;51087;55.718;21.122;2022-09-09T08:21:12;15.21;57.11
64499;SHT31;51087;55.718;21.122;2022-09-09T08:23:39;15.24;57.10
64499;SHT31;51087;55.718;21.122;2022-09-09T08:26:29;15.28;56.61
64499;SHT31;51087;55.718;21.122;2022-09-09T08:28:57;15.47;56.85
64499;SHT31;51087;55.718;21.122;2022-09-09T08:31:35;15.53;56.31
64499;SHT31;51087;55.718;21.122;2022-09-09T08:34:03;15.54;56.62
64499;SHT31;51087;55.718;21.122;2022-09-09T08:36:30;15.54;56.33
64499;SHT31;51087;55.718;21.122;2022-09-09T08:38:59;15.56;55.97
64499;SHT31;51087;55.718;21.122;2022-09-09T08:44:47;15.59;56.17
64499;SHT31;51087;55.718;21.122;2022-09-09T08:47:47;15.63;56.04
64499;SHT31;51087;55.718;21.122;2022-09-09T08:50:38;15.79;56.47
64499;SHT31;51087;55.718;21.122;2022-09-09T08:53:20;15.84;55.93
64499;SHT31;51087;55.718;21.122;2022-09-09T08:55:50;15.98;55.74
64499;SHT31;51087;55.718;21.122;2022-09-09T08:58:23;15.98;55.40
64499;SHT31;51087;55.718;21.122;2022-09-09T09:12:06;16.63;54.69
64499;SHT31;51087;55.718;21.122;2022-09-09T09:14:35;16.63;54.29
64499;SHT31;51087;55.718;21.122;2022-09-09T09:17:14;16.67;53.80
64499;SHT31;51087;55.718;21.122;2022-09-09T09:19:41;16.79;53.27
64499;SHT31;51087;55.718;21.122;2022-09-09T09:22:21;16.90;53.06
64499;SHT31;51087;55.718;21.122;2022-09-09T09:29:59;17.70;51.99
64499;SHT31;51087;55.718;21.122;2022-09-09T09:32:27;17.86;51.91
64499;SHT31;51087;55.718;21.122;2022-09-09T09:34:57;18.01;51.13
64499;SHT31;51087;55.718;21.122;2022-09-09T09:37:29;18.25;50.97
64499;SHT31;51087;55.718;21.122;2022-09-09T09:39:54;18.18;50.42
64499;SHT31;51087;55.718;21.122;2022-09-09T09:42:20;18.13;50.35
64499;SHT31;51087;55.718;21.122;2022-09-09T09:44:46;17.97;51.06
64499;SHT31;51087;55.718;21.122;2022-09-09T09:47:20;18.07;51.02
64499;SHT31;51087;55.718;21.122;2022-09-09T09:49:57;18.22;50.69
64499;SHT31;51087;55.718;21.122;2022-09-09T09:52:26;18.18;50.67
64499;SHT31;51087;55.718;21.122;2022-09-09T09:54:54;18.17;50.82
64499;SHT31;51087;55.718;21.122;2022-09-09T09:57:25;18.17;50.93
64499;SHT31;51087;55.718;21.122;2022-09-09T10:00:14;18.41;50.34
64499;SHT31;51087;55.718;21.122;2022-09-09T10:02:43;18.48;50.64
64499;SHT31;51087;55.718;21.122;2022-09-09T10:07:39;18.69;48.67
64499;SHT31;51087;55.718;21.122;2022-09-09T10:10:05;19.08;48.68
64499;SHT31;51087;55.718;21.122;2022-09-09T10:15:49;19.85;47.52
64499;SHT31;51087;55.718;21.122;2022-09-09T10:27:22;20.38;46.04
64499;SHT31;51087;55.718;21.122;2022-09-09T10:48:52;20.06;46.51
64499;SHT31;51087;55.718;21.122;2022-09-09T10:51:36;20.10;46.99
64499;SHT31;51087;55.718;21.122;2022-09-09T10:57:03;20.05;46.83
64499;SHT31;51087;55.718;21.122;2022-09-09T10:59:42;19.83;47.02
64499;SHT31;51087;55.718;21.122;2022-09-09T11:04:42;20.00;46.95
64499;SHT31;51087;55.718;21.122;2022-09-09T11:07:14;20.21;46.63
64499;SHT31;51087;55.718;21.122;2022-09-09T11:09:47;20.21;46.71
64499;SHT31;51087;55.718;21.122;2022-09-09T11:12:18;20.49;46.08
64499;SHT31;51087;55.718;21.122;2022-09-09T11:17:52;20.63;45.48
64499;SHT31;51087;55.718;21.122;2022-09-09T11:20:19;20.82;44.62
64499;SHT31;51087;55.718;21.122;2022-09-09T11:22:53;21.18;44.37
64499;SHT31;51087;55.718;21.122;2022-09-09T11:25:27;21.59;43.87
64499;SHT31;51087;55.718;21.122;2022-09-09T11:28:14;22.08;42.86
64499;SHT31;51087;55.718;21.122;2022-09-09T11:42:16;22.53;41.67
64499;SHT31;51087;55.718;21.122;2022-09-09T11:44:43;22.15;42.45
64499;SHT31;51087;55.718;21.122;2022-09-09T11:47:29;23.02;41.20
64499;SHT31;51087;55.718;21.122;2022-09-09T11:50:22;23.59;40.02
64499;SHT31;51087;55.718;21.122;2022-09-09T11:53:21;24.28;39.15
64499;SHT31;51087;55.718;21.122;2022-09-09T11:55:59;24.42;38.54
64499;SHT31;51087;55.718;21.122;2022-09-09T11:58:27;23.45;40.38
64499;SHT31;51087;55.718;21.122;2022-09-09T12:00:57;22.94;41.20
64499;SHT31;51087;55.718;21.122;2022-09-09T12:03:43;22.60;42.25
64499;SHT31;51087;55.718;21.122;2022-09-09T12:06:14;22.03;42.94
64499;SHT31;51087;55.718;21.122;2022-09-09T12:08:46;21.62;43.72
64499;SHT31;51087;55.718;21.122;2022-09-09T12:11:24;21.44;44.26
64499;SHT31;51087;55.718;21.122;2022-09-09T12:13:54;21.51;44.66
64499;SHT31;51087;55.718;21.122;2022-09-09T12:16:33;21.30;45.53
64499;SHT31;51087;55.718;21.122;2022-09-09T12:24:09;20.55;47.15
64499;SHT31;51087;55.718;21.122;2022-09-09T12:26:58;20.59;47.05
64499;SHT31;51087;55.718;21.122;2022-09-09T12:29:48;20.55;47.38
64499;SHT31;51087;55.718;21.122;2022-09-09T12:32:19;20.37;47.73
64499;SHT31;51087;55.718;21.122;2022-09-09T12:37:24;20.20;47.16
64499;SHT31;51087;55.718;21.122;2022-09-09T12:39:56;20.07;47.37
64499;SHT31;51087;55.718;21.122;2022-09-09T12:42:24;20.07;47.17
64499;SHT31;51087;55.718;21.122;2022-09-09T12:45:14;19.79;47.04
64499;SHT31;51087;55.718;21.122;2022-09-09T12:47:50;19.69;47.40
64499;SHT31;51087;55.718;21.122;2022-09-09T12:50:25;19.43;47.71
64499;SHT31;51087;55.718;21.122;2022-09-09T12:52:53;19.43;47.96
64499;SHT31;51087;55.718;21.122;2022-09-09T12:55:21;19.30;47.87
64499;SHT31;51087;55.718;21.122;2022-09-09T12:57:50;19.44;47.97
64499;SHT31;51087;55.718;21.122;2022-09-09T13:00:22;19.30;48.18
64499;SHT31;51087;55.718;21.122;2022-09-09T13:02:57;19.39;48.22
64499;SHT31;51087;55.718;21.122;2022-09-09T13:05:33;19.30;48.20
64499;SHT31;51087;55.718;21.122;2022-09-09T13:08:04;19.16;48.50
64499;SHT31;51087;55.718;21.122;2022-09-09T13:10:36;19.24;48.71
64499;SHT31;51087;55.718;21.122;2022-09-09T13:13:03;19.24;48.34
64499;SHT31;51087;55.718;21.122;2022-09-09T13:15:30;19.34;48.44
64499;SHT31;51087;55.718;21.122;2022-09-09T13:17:58;19.25;48.42
64499;SHT31;51087;55.718;21.122;2022-09-09T13:20:26;19.21;48.59
64499;SHT31;51087;55.718;21.122;2022-09-09T13:22:54;19.07;49.17
64499;SHT31;51087;55.718;21.122;2022-09-09T13:25:28;19.08;49.26
64499;SHT31;51087;55.718;21.122;2022-09-09T13:27:57;18.70;49.47
64499;SHT31;51087;55.718;21.122;2022-09-09T13:30:31;18.34;49.69
64499;SHT31;51087;55.718;21.122;2022-09-09T13:35:56;17.96;51.31
64499;SHT31;51087;55.718;21.122;2022-09-09T13:38:21;17.76;51.00
64499;SHT31;51087;55.718;21.122;2022-09-09T13:41:09;17.61;51.24
64499;SHT31;51087;55.718;21.122;2022-09-09T13:43:53;17.65;51.37
64499;SHT31;51087;55.718;21.122;2022-09-09T13:46:40;17.63;51.71
64499;SHT31;51087;55.718;21.122;2022-09-09T13:51:40;17.25;52.34
64499;SHT31;51087;55.718;21.122;2022-09-09T13:54:11;17.04;52.91
64499;SHT31;51087;55.718;21.122;2022-09-09T13:56:38;16.97;53.52
64499;SHT31;51087;55.718;21.122;2022-09-09T13:59:05;16.99;53.90
64499;SHT31;51087;55.718;21.122;2022-09-09T14:01:31;16.81;53.86
64499;SHT31;51087;55.718;21.122;2022-09-09T14:03:59;16.72;53.71
64499;SHT31;51087;55.718;21.122;2022-09-09T14:06:25;16.62;53.95
64499;SHT31;51087;55.718;21.122;2022-09-09T14:08:51;16.56;54.49
64499;SHT31;51087;55.718;21.122;2022-09-09T14:11:17;16.49;54.60
64499;SHT31;51087;55.718;21.122;2022-09-09T14:13:43;16.46;54.65
64499;SHT31;51087;55.718;21.122;2022-09-09T14:16:09;16.38;55.08
64499;SHT31;51087;55.718;21.122;2022-09-09T14:18:35;16.35;55.25
64499;SHT31;51087;55.718;21.122;2022-09-09T14:21:00;16.35;55.50
64499;SHT31;51087;55.718;21.122;2022-09-09T14:23:27;16.21;56.01
64499;SHT31;51087;55.718;21.122;2022-09-09T14:25:52;16.14;57.60
64499;SHT31;51087;55.718;21.122;2022-09-09T14:28:18;16.17;58.99
64499;SHT31;51087;55.718;21.122;2022-09-09T14:30:44;16.19;58.37
64499;SHT31;51087;55.718;21.122;2022-09-09T14:33:13;16.24;58.16
64499;SHT31;51087;55.718;21.122;2022-09-09T14:35:38;16.26;57.56
64499;SHT31;51087;55.718;21.122;2022-09-09T14:38:07;16.26;57.67
64499;SHT31;51087;55.718;21.122;2022-09-09T14:40:35;16.28;58.23
64499;SHT31;51087;55.718;21.122;2022-09-09T14:43:00;16.22;59.08
64499;SHT31;51087;55.718;21.122;2022-09-09T14:45:26;16.14;58.40
64499;SHT31;51087;55.718;21.122;2022-09-09T14:47:52;16.08;60.54
64499;SHT31;51087;55.718;21.122;2022-09-09T14:50:19;16.05;61.50
64499;SHT31;51087;55.718;21.122;2022-09-09T14:52:45;16.00;61.68
64499;SHT31;51087;55.718;21.122;2022-09-09T14:55:11;15.96;61.53
64499;SHT31;51087;55.718;21.122;2022-09-09T14:57:37;15.94;62.33
64499;SHT31;51087;55.718;21.122;2022-09-09T15:00:04;15.81;62.05
64499;SHT31;51087;55.718;21.122;2022-09-09T15:02:30;15.83;62.55
64499;SHT31;51087;55.718;21.122;2022-09-09T15:04:56;15.84;61.96
64499;SHT31;51087;55.718;21.122;2022-09-09T15:07:25;15.79;62.62
64499;SHT31;51087;55.718;21.122;2022-09-09T15:09:50;15.73;60.89
64499;SHT31;51087;55.718;21.122;2022-09-09T15:12:17;15.74;61.15
64499;SHT31;51087;55.718;21.122;2022-09-09T15:14:44;15.77;61.52
64499;SHT31;51087;55.718;21.122;2022-09-09T15:17:10;15.69;62.04
64499;SHT31;51087;55.718;21.122;2022-09-09T15:19:35;15.64;62.67
64499;SHT31;51087;55.718;21.122;2022-09-09T15:22:02;15.50;62.56
64499;SHT31;51087;55.718;21.122;2022-09-09T15:24:27;15.49;63.71
64499;SHT31;51087;55.718;21.122;2022-09-09T15:26:53;15.44;64.06
64499;SHT31;51087;55.718;21.122;2022-09-09T15:29:19;15.33;64.26
64499;SHT31;51087;55.718;21.122;2022-09-09T15:31:44;15.28;64.94
64499;SHT31;51087;55.718;21.122;2022-09-09T15:34:10;15.18;65.28
64499;SHT31;51087;55.718;21.122;2022-09-09T15:36:38;15.18;66.68
64499;SHT31;51087;55.718;21.122;2022-09-09T15:39:06;15.08;66.74
64499;SHT31;51087;55.718;21.122;2022-09-09T15:41:32;15.05;67.54
64499;SHT31;51087;55.718;21.122;2022-09-09T15:43:58;14.97;68.19
64499;SHT31;51087;55.718;21.122;2022-09-09T15:46:36;14.89;69.93
64499;SHT31;51087;55.718;21.122;2022-09-09T15:51:29;14.71;69.24
64499;SHT31;51087;55.718;21.122;2022-09-09T15:53:56;14.66;69.10
64499;SHT31;51087;55.718;21.122;2022-09-09T15:56:22;14.64;70.01
64499;SHT31;51087;55.718;21.122;2022-09-09T15:58:48;14.56;69.29
64499;SHT31;51087;55.718;21.122;2022-09-09T16:01:13;14.51;70.52
64499;SHT31;51087;55.718;21.122;2022-09-09T16:03:41;14.37;70.95
64499;SHT31;51087;55.718;21.122;2022-09-09T16:06:08;14.32;71.19
64499;SHT31;51087;55.718;21.122;2022-09-09T16:08:45;14.21;71.43
64499;SHT31;51087;55.718;21.122;2022-09-09T16:11:22;14.18;71.85
64499;SHT31;51087;55.718;21.122;2022-09-09T16:13:49;14.18;72.25
64499;SHT31;51087;55.718;21.122;2022-09-09T16:16:16;14.08;73.85
64499;SHT31;51087;55.718;21.122;2022-09-09T16:18:50;13.98;73.87
64499;SHT31;51087;55.718;21.122;2022-09-09T16:21:20;13.89;74.81
64499;SHT31;51087;55.718;21.122;2022-09-09T16:23:46;13.79;75.03
64499;SHT31;51087;55.718;21.122;2022-09-09T16:26:14;13.78;74.98
64499;SHT31;51087;55.718;21.122;2022-09-09T16:28:40;13.67;75.48
64499;SHT31;51087;55.718;21.122;2022-09-09T16:31:11;13.53;77.40
64499;SHT31;51087;55.718;21.122;2022-09-09T16:33:39;13.50;78.00
64499;SHT31;51087;55.718;21.122;2022-09-09T16:36:09;13.40;78.20
64499;SHT31;51087;55.718;21.122;2022-09-09T16:38:35;13.27;78.55
64499;SHT31;51087;55.718;21.122;2022-09-09T16:41:02;13.18;78.70
64499;SHT31;51087;55.718;21.122;2022-09-09T16:43:30;13.12;79.82
64499;SHT31;51087;55.718;21.122;2022-09-09T16:45:55;13.06;79.54
64499;SHT31;51087;55.718;21.122;2022-09-09T16:48:21;13.01;79.51
64499;SHT31;51087;55.718;21.122;2022-09-09T16:50:46;12.98;78.99
64499;SHT31;51087;55.718;21.122;2022-09-09T16:53:12;12.88;77.69
64499;SHT31;51087;55.718;21.122;2022-09-09T16:55:39;12.89;79.00
64499;SHT31;51087;55.718;21.122;2022-09-09T16:58:07;12.84;78.49
64499;SHT31;51087;55.718;21.122;2022-09-09T17:00:34;12.84;78.00
64499;SHT31;51087;55.718;21.122;2022-09-09T17:02:59;12.80;77.92
64499;SHT31;51087;55.718;21.122;2022-09-09T17:05:25;12.77;78.73
64499;SHT31;51087;55.718;21.122;2022-09-09T17:07:50;12.72;79.15
64499;SHT31;51087;55.718;21.122;2022-09-09T17:10:16;12.75;79.29
64499;SHT31;51087;55.718;21.122;2022-09-09T17:12:42;12.68;78.12
64499;SHT31;51087;55.718;21.122;2022-09-09T17:15:08;12.68;79.76
64499;SHT31;51087;55.718;21.122;2022-09-09T17:17:34;12.67;79.71
64499;SHT31;51087;55.718;21.122;2022-09-09T17:20:00;12.64;79.82
64499;SHT31;51087;55.718;21.122;2022-09-09T17:22:27;12.58;79.94
64499;SHT31;51087;55.718;21.122;2022-09-09T17:24:52;12.58;80.09
64499;SHT31;51087;55.718;21.122;2022-09-09T17:27:18;12.55;80.90
64499;SHT31;51087;55.718;21.122;2022-09-09T17:29:43;12.48;80.87
64499;SHT31;51087;55.718;21.122;2022-09-09T17:32:09;12.43;81.46
64499;SHT31;51087;55.718;21.122;2022-09-09T17:34:35;12.41;82.00
64499;SHT31;51087;55.718;21.122;2022-09-09T17:37:01;12.41;82.65
64499;SHT31;51087;55.718;21.122;2022-09-09T17:39:27;12.38;82.64
64499;SHT31;51087;55.718;21.122;2022-09-09T17:41:53;12.38;83.51
64499;SHT31;51087;55.718;21.122;2022-09-09T17:44:19;12.37;82.58
64499;SHT31;51087;55.718;21.122;2022-09-09T17:46:45;12.27;83.42
64499;SHT31;51087;55.718;21.122;2022-09-09T17:49:13;12.23;83.66